createdAt,value
2018-05-07T00:01:53.840Z,101507.03
2018-05-07T00:04:22.222Z,101507.75
2018-05-07T00:06:50.634Z,101506.37
2018-05-07T00:09:19.813Z,101507.17
2018-05-07T00:11:48.273Z,101503.69
2018-05-07T00:14:16.653Z,101501.84
2018-05-07T00:16:45.051Z,101502.33
2018-05-07T00:19:13.429Z,101502.26
2018-05-07T00:21:41.813Z,101505.25
2018-05-07T00:24:10.213Z,101493.63
2018-05-07T00:26:38.655Z,101501.02
2018-05-07T00:29:07.026Z,101497.06
2018-05-07T00:31:35.407Z,101499.22
2018-05-07T00:34:03.806Z,101492.77
2018-05-07T00:36:32.205Z,101498.86
2018-05-07T00:39:00.644Z,101490.91
2018-05-07T00:41:29.792Z,101493.44
2018-05-07T00:43:58.195Z,101497.84
2018-05-07T00:46:26.671Z,101493.81
2018-05-07T00:48:55.051Z,101490.77
2018-05-07T00:51:23.502Z,101493.23
2018-05-07T00:53:51.841Z,101492.00
2018-05-07T00:56:20.366Z,101489.95
2018-05-07T00:58:48.770Z,101493.14
2018-05-07T01:01:17.187Z,101489.84
2018-05-07T01:03:45.566Z,101488.48
2018-05-07T01:06:13.965Z,101488.19
2018-05-07T01:08:43.110Z,101490.41
2018-05-07T01:11:11.487Z,101487.67
2018-05-07T01:13:39.889Z,101488.49
2018-05-07T01:16:08.295Z,101491.14
2018-05-07T01:18:36.698Z,101493.70
2018-05-07T01:21:05.885Z,101493.56
2018-05-07T01:23:34.291Z,101494.83
2018-05-07T01:26:03.461Z,101505.05
2018-05-07T01:28:31.877Z,101502.98
2018-05-07T01:31:01.063Z,101503.00
2018-05-07T01:33:29.479Z,101501.77
2018-05-07T01:35:57.856Z,101498.72
2018-05-07T01:38:26.331Z,101501.56
2018-05-07T01:40:55.494Z,101503.16
2018-05-07T01:43:23.889Z,101493.84
2018-05-07T01:45:52.303Z,101495.55
2018-05-07T01:48:20.707Z,101498.41
2018-05-07T01:50:49.096Z,101493.53
2018-05-07T01:53:17.519Z,101490.80
2018-05-07T01:55:45.908Z,101496.89
2018-05-07T01:58:14.295Z,101490.67
2018-05-07T02:00:42.696Z,101488.92
2018-05-07T02:03:11.845Z,101488.84
2018-05-07T02:05:40.246Z,101490.20
2018-05-07T02:08:08.638Z,101487.09
2018-05-07T02:10:37.023Z,101485.65
2018-05-07T02:13:05.410Z,101481.17
2018-05-07T02:15:33.801Z,101480.42
2018-05-07T02:18:02.958Z,101480.38
2018-05-07T02:20:31.358Z,101482.76
2018-05-07T02:22:59.752Z,101487.42
2018-05-07T02:25:28.137Z,101487.66
2018-05-07T02:27:57.441Z,101491.47
2018-05-07T02:30:25.860Z,101489.27
2018-05-07T02:32:55.021Z,101489.38
2018-05-07T02:35:23.415Z,101486.31
2018-05-07T02:37:51.808Z,101485.17
2018-05-07T02:40:20.975Z,101491.16
2018-05-07T02:42:49.382Z,101489.28
2018-05-07T02:45:17.777Z,101488.85
2018-05-07T02:47:46.177Z,101487.37
2018-05-07T02:50:15.351Z,101481.07
2018-05-07T02:52:43.735Z,101484.70
2018-05-07T02:55:12.214Z,101483.64
2018-05-07T02:57:40.610Z,101480.02
2018-05-07T03:00:09.015Z,101478.71
2018-05-07T03:02:38.175Z,101479.36
2018-05-07T03:05:06.641Z,101483.89
2018-05-07T03:07:35.029Z,101485.39
2018-05-07T03:10:03.431Z,101480.90
2018-05-07T03:12:32.684Z,101480.19
2018-05-07T03:15:01.119Z,101479.64
2018-05-07T03:17:29.557Z,101481.29
2018-05-07T03:19:58.685Z,101473.48
2018-05-07T03:22:27.070Z,101476.38
2018-05-07T03:24:55.466Z,101477.97
2018-05-07T03:27:23.851Z,101470.77
2018-05-07T03:29:52.270Z,101468.70
2018-05-07T03:32:21.439Z,101470.53
2018-05-07T03:34:49.921Z,101471.59
2018-05-07T03:37:18.327Z,101473.83
2018-05-07T03:39:46.705Z,101470.63
2018-05-07T03:42:15.140Z,101465.66
2018-05-07T03:44:43.522Z,101462.45
2018-05-07T03:47:11.922Z,101461.95
2018-05-07T03:49:40.418Z,101459.59
2018-05-07T03:52:08.816Z,101452.56
2018-05-07T03:54:37.201Z,101451.34
2018-05-07T03:57:05.608Z,101451.81
2018-05-07T03:59:33.981Z,101451.77
2018-05-07T04:02:03.111Z,101452.39
2018-05-07T04:04:31.561Z,101446.72
2018-05-07T04:06:59.860Z,101448.81
2018-05-07T04:09:28.382Z,101445.34
2018-05-07T04:11:56.770Z,101447.59
2018-05-07T04:14:25.163Z,101447.63
2018-05-07T04:20:25.621Z,101441.80
2018-05-07T04:23:11.497Z,101441.39
2018-05-07T04:25:39.971Z,101447.22
2018-05-07T04:28:08.370Z,101445.98
2018-05-07T04:30:36.776Z,101450.50
2018-05-07T04:33:05.182Z,101452.78
2018-05-07T04:35:33.596Z,101454.16
2018-05-07T04:38:01.955Z,101449.83
2018-05-07T04:40:30.345Z,101450.37
2018-05-07T04:42:58.721Z,101448.52
2018-05-07T04:45:27.144Z,101444.74
2018-05-07T04:47:55.559Z,101445.48
2018-05-07T04:50:23.949Z,101444.46
2018-05-07T04:52:53.295Z,101448.16
2018-05-07T04:55:21.691Z,101446.70
2018-05-07T04:57:50.095Z,101446.34
2018-05-07T05:00:18.489Z,101449.77
2018-05-07T05:02:47.661Z,101443.18
2018-05-07T05:05:16.095Z,101446.07
2018-05-07T05:07:44.480Z,101445.36
2018-05-07T05:10:12.909Z,101446.48
2018-05-07T05:12:41.308Z,101442.90
2018-05-07T05:15:10.457Z,101447.68
2018-05-07T05:17:38.885Z,101439.21
2018-05-07T05:20:08.061Z,101440.26
2018-05-07T05:22:36.457Z,101446.58
2018-05-07T05:25:04.840Z,101446.94
2018-05-07T05:27:33.257Z,101451.88
2018-05-07T05:30:01.738Z,101445.81
2018-05-07T05:32:30.155Z,101450.64
2018-05-07T05:34:58.560Z,101447.80
2018-05-07T05:37:26.965Z,101443.28
2018-05-07T05:39:55.365Z,101442.08
2018-05-07T05:42:24.527Z,101439.06
2018-05-07T05:44:52.923Z,101441.84
2018-05-07T05:47:21.438Z,101445.57
2018-05-07T05:49:50.741Z,101442.70
2018-05-07T05:52:19.122Z,101440.66
2018-05-07T05:54:48.299Z,101440.63
2018-05-07T05:57:17.582Z,101439.84
2018-05-07T05:59:46.721Z,101437.73
2018-05-07T06:02:15.887Z,101440.03
2018-05-07T06:04:49.196Z,101437.88
2018-05-07T06:07:17.634Z,101434.86
2018-05-07T06:09:46.027Z,101432.67
2018-05-07T06:12:14.449Z,101440.16
2018-05-07T06:14:43.077Z,101443.69
2018-05-07T06:17:12.170Z,101447.61
2018-05-07T06:19:41.707Z,101445.85
2018-05-07T06:22:10.474Z,101444.96
2018-05-07T06:24:38.955Z,101442.31
2018-05-07T06:27:08.109Z,101440.05
2018-05-07T06:29:38.017Z,101440.92
2018-05-07T06:32:09.177Z,101447.04
2018-05-07T06:34:37.671Z,101445.55
2018-05-07T06:37:06.913Z,101449.31
2018-05-07T06:39:36.060Z,101445.62
2018-05-07T06:42:04.445Z,101444.52
2018-05-07T06:44:32.846Z,101437.27
2018-05-07T06:47:01.444Z,101428.90
2018-05-07T06:49:30.601Z,101429.58
2018-05-07T06:51:59.007Z,101430.31
2018-05-07T06:54:27.412Z,101431.80
2018-05-07T06:56:56.681Z,101428.79
2018-05-07T06:59:25.156Z,101424.92
2018-05-07T07:01:53.525Z,101419.91
2018-05-07T07:04:21.897Z,101427.91
2018-05-07T07:06:50.283Z,101428.12
2018-05-07T07:09:18.706Z,101427.47
2018-05-07T07:11:48.057Z,101423.04
2018-05-07T07:14:17.220Z,101428.38
2018-05-07T07:16:45.593Z,101420.96
2018-05-07T07:19:13.978Z,101427.30
2018-05-07T07:21:44.081Z,101419.02
2018-05-07T07:24:12.486Z,101410.07
2018-05-07T07:26:41.893Z,101409.99
2018-05-07T07:29:10.382Z,101414.54
2018-05-07T07:31:38.778Z,101419.33
2018-05-07T07:34:08.162Z,101415.99
2018-05-07T07:36:36.488Z,101416.61
2018-05-07T07:39:06.383Z,101414.78
2018-05-07T07:41:34.822Z,101415.34
2018-05-07T07:44:03.277Z,101419.97
2018-05-07T07:46:32.433Z,101417.57
2018-05-07T07:49:00.888Z,101410.77
2018-05-07T07:51:29.269Z,101416.34
2018-05-07T07:53:57.666Z,101411.30
2018-05-07T07:56:26.047Z,101408.06
2018-05-07T07:58:54.484Z,101409.05
2018-05-07T08:01:22.923Z,101411.18
2018-05-07T08:03:51.403Z,101408.49
2018-05-07T08:06:19.788Z,101406.84
2018-05-07T08:08:48.176Z,101407.92
2018-05-07T08:11:16.618Z,101407.78
2018-05-07T08:13:45.772Z,101401.56
2018-05-07T08:16:14.173Z,101403.70
2018-05-07T08:18:42.610Z,101394.34
2018-05-07T08:21:11.005Z,101404.64
2018-05-07T08:23:39.410Z,101404.44
2018-05-07T08:26:07.820Z,101399.50
2018-05-07T08:28:36.167Z,101394.19
2018-05-07T08:31:04.582Z,101402.98
2018-05-07T08:33:32.986Z,101401.19
2018-05-07T08:36:02.154Z,101401.39
2018-05-07T08:38:30.551Z,101397.91
2018-05-07T08:40:59.002Z,101400.66
2018-05-07T08:43:27.398Z,101401.03
2018-05-07T08:45:56.550Z,101393.92
2018-05-07T08:48:25.703Z,101395.38
2018-05-07T08:50:54.104Z,101389.87
2018-05-07T08:53:22.524Z,101385.14
2018-05-07T08:55:50.939Z,101392.42
2018-05-07T08:58:19.403Z,101397.10
2018-05-07T09:00:47.790Z,101383.52
2018-05-07T09:03:16.218Z,101377.86
2018-05-07T09:05:44.605Z,101373.69
2018-05-07T09:08:13.002Z,101378.97
2018-05-07T09:10:42.149Z,101378.86
2018-05-07T09:13:10.538Z,101367.84
2018-05-07T09:15:39.000Z,101375.64
2018-05-07T09:18:07.369Z,101375.67
2018-05-07T09:20:36.585Z,101369.95
2018-05-07T09:23:04.969Z,101367.30
2018-05-07T09:25:35.017Z,101363.13
2018-05-07T09:28:03.743Z,101354.50
2018-05-07T09:30:32.153Z,101352.35
2018-05-07T09:33:00.549Z,101348.17
2018-05-07T09:35:28.966Z,101347.45
2018-05-07T09:37:57.363Z,101351.55
2018-05-07T09:40:25.743Z,101347.27
2018-05-07T09:42:54.215Z,101343.26
2018-05-07T09:45:23.311Z,101335.92
2018-05-07T09:47:51.730Z,101336.27
2018-05-07T09:50:20.280Z,101328.08
2018-05-07T09:52:48.656Z,101333.97
2018-05-07T09:55:17.232Z,101323.56
2018-05-07T09:58:04.313Z,101319.64
2018-05-07T10:00:37.747Z,101326.53
2018-05-07T10:03:06.225Z,101320.09
2018-05-07T10:05:34.625Z,101313.23
2018-05-07T10:08:03.035Z,101311.92
2018-05-07T10:10:32.220Z,101307.44
2018-05-07T10:13:00.674Z,101315.64
2018-05-07T10:15:29.088Z,101308.30
2018-05-07T10:17:57.494Z,101293.54
2018-05-07T10:20:25.904Z,101302.77
2018-05-07T10:22:55.051Z,101304.28
2018-05-07T10:25:23.462Z,101295.56
2018-05-07T10:27:51.862Z,101300.39
2018-05-07T10:30:21.039Z,101300.84
2018-05-07T10:32:49.440Z,101297.41
2018-05-07T10:35:18.699Z,101294.84
2018-05-07T10:37:47.854Z,101288.95
2018-05-07T10:40:17.017Z,101290.17
2018-05-07T10:42:45.503Z,101285.61
2018-05-07T10:45:13.877Z,101284.45
2018-05-07T10:47:43.076Z,101284.27
2018-05-07T10:50:11.524Z,101283.27
2018-05-07T10:52:39.962Z,101279.56
2018-05-07T10:55:10.333Z,101275.23
2018-05-07T10:57:38.773Z,101271.28
2018-05-07T11:00:07.189Z,101266.77
2018-05-07T11:02:36.375Z,101261.20
2018-05-07T11:05:04.784Z,101263.80
2018-05-07T11:07:34.014Z,101260.28
2018-05-07T11:10:03.309Z,101250.45
2018-05-07T11:12:31.790Z,101248.38
2018-05-07T11:15:00.182Z,101245.12
2018-05-07T11:17:28.614Z,101250.33
2018-05-07T11:19:57.039Z,101247.87
2018-05-07T11:22:25.470Z,101249.47
2018-05-07T11:24:53.884Z,101239.57
2018-05-07T11:27:23.046Z,101229.55
2018-05-07T11:29:51.462Z,101235.46
2018-05-07T11:32:20.617Z,101238.42
2018-05-07T11:34:49.946Z,101231.09
2018-05-07T11:37:18.326Z,101227.30
2018-05-07T11:39:46.714Z,101224.70
2018-05-07T11:42:16.621Z,101223.76
2018-05-07T11:44:45.035Z,101220.39
2018-05-07T11:47:13.443Z,101225.11
2018-05-07T11:49:41.916Z,101216.50
2018-05-07T11:52:11.060Z,101222.68
2018-05-07T11:54:39.462Z,101217.19
2018-05-07T11:57:07.913Z,101217.97
2018-05-07T11:59:36.307Z,101215.61
2018-05-07T12:02:04.722Z,101204.30
2018-05-07T12:04:33.119Z,101206.27
2018-05-07T12:07:01.555Z,101211.25
2018-05-07T12:09:29.933Z,101207.53
2018-05-07T12:11:58.339Z,101201.93
2018-05-07T12:14:26.744Z,101201.49
2018-05-07T12:16:55.144Z,101197.91
2018-05-07T12:19:23.563Z,101189.92
2018-05-07T12:21:51.961Z,101189.95
2018-05-07T12:24:20.379Z,101187.12
2018-05-07T12:26:48.783Z,101188.69
2018-05-07T12:29:17.949Z,101185.27
2018-05-07T12:31:46.511Z,101183.75
2018-05-07T12:34:15.561Z,101179.59
2018-05-07T12:36:43.941Z,101173.93
2018-05-07T12:39:12.319Z,101171.47
2018-05-07T12:41:40.722Z,101166.91
2018-05-07T12:44:10.432Z,101163.20
2018-05-07T12:46:39.647Z,101163.57
2018-05-07T12:49:08.817Z,101155.67
2018-05-07T12:51:37.999Z,101152.41
2018-05-07T12:54:06.409Z,101148.31
2018-05-07T12:56:34.819Z,101137.53
2018-05-07T12:59:04.021Z,101138.39
2018-05-07T13:01:32.353Z,101138.06
2018-05-07T13:04:00.748Z,101129.92
2018-05-07T13:06:29.162Z,101133.86
2018-05-07T13:08:57.593Z,101126.05
2018-05-07T13:11:26.513Z,101128.01
2018-05-07T13:13:54.983Z,101115.63
2018-05-07T13:16:23.461Z,101118.18
2018-05-07T13:18:51.873Z,101112.89
2018-05-07T13:21:20.252Z,101117.27
2018-05-07T13:23:48.626Z,101114.84
2018-05-07T13:26:17.037Z,101111.22
2018-05-07T13:28:45.409Z,101103.22
2018-05-07T13:31:13.847Z,101100.80
2018-05-07T13:33:42.284Z,101097.72
2018-05-07T13:36:11.682Z,101093.88
2018-05-07T13:38:40.064Z,101090.44
2018-05-07T13:41:08.476Z,101089.09
2018-05-07T13:43:37.656Z,101080.94
2018-05-07T13:46:06.057Z,101084.45
2018-05-07T13:48:37.458Z,101077.94
2018-05-07T13:51:12.985Z,101079.92
2018-05-07T13:53:42.099Z,101071.69
2018-05-07T13:56:11.480Z,101072.66
2018-05-07T13:58:45.152Z,101066.16
2018-05-07T14:01:14.952Z,101054.36
2018-05-07T14:03:43.366Z,101057.05
2018-05-07T14:06:12.617Z,101058.98
2018-05-07T14:08:41.884Z,101050.02
2018-05-07T14:11:11.184Z,101043.86
2018-05-07T14:13:39.577Z,101043.29
2018-05-07T14:16:07.973Z,101039.58
2018-05-07T14:18:36.633Z,101038.67
2018-05-07T14:21:05.794Z,101027.40
2018-05-07T14:23:37.019Z,101026.11
2018-05-07T14:26:05.497Z,101022.31
2018-05-07T14:28:33.901Z,101017.20
2018-05-07T14:31:02.342Z,101014.78
2018-05-07T14:33:33.213Z,101015.85
2018-05-07T14:36:01.627Z,101019.87
2018-05-07T14:38:30.059Z,101019.11
2018-05-07T14:40:58.620Z,101008.33
2018-05-07T14:43:27.833Z,101005.59
2018-05-07T14:45:56.347Z,101002.15
2018-05-07T14:48:25.241Z,100991.59
2018-05-07T14:50:53.672Z,101005.31
2018-05-07T14:53:22.085Z,101000.48
2018-05-07T14:55:51.245Z,100999.37
2018-05-07T14:58:19.666Z,100984.19
2018-05-07T15:00:48.890Z,100992.03
2018-05-07T15:03:17.323Z,100991.88
2018-05-07T15:05:45.740Z,100988.19
2018-05-07T15:08:14.894Z,100980.76
2018-05-07T15:10:44.071Z,100984.77
2018-05-07T15:13:12.494Z,100979.39
2018-05-07T15:15:41.111Z,100971.69
2018-05-07T15:18:09.477Z,100978.66
2018-05-07T15:20:37.905Z,100974.98
2018-05-07T15:23:06.302Z,100972.22
2018-05-07T15:25:34.698Z,100969.37
2018-05-07T15:28:03.131Z,100964.96
2018-05-07T15:30:32.320Z,100961.69
2018-05-07T15:33:01.474Z,100962.87
2018-05-07T15:35:30.522Z,100965.83
2018-05-07T15:38:00.388Z,100951.17
2018-05-07T15:40:28.803Z,100952.52
2018-05-07T15:42:57.210Z,100943.23
2018-05-07T15:45:26.380Z,100946.70
2018-05-07T15:47:54.830Z,100947.30
2018-05-07T15:50:23.239Z,100944.41
2018-05-07T15:52:51.649Z,100946.11
2018-05-07T15:55:20.038Z,100940.66
2018-05-07T15:57:49.299Z,100932.92
2018-05-07T16:00:17.677Z,100933.75
2018-05-07T16:02:46.875Z,100936.50
2018-05-07T16:05:15.260Z,100931.69
2018-05-07T16:07:43.665Z,100930.53
2018-05-07T16:10:12.127Z,100922.72
2018-05-07T16:12:40.523Z,100925.37
2018-05-07T16:15:09.005Z,100928.00
2018-05-07T16:17:37.456Z,100921.27
2018-05-07T16:20:05.834Z,100924.42
2018-05-07T16:22:34.992Z,100921.05
2018-05-07T16:25:03.388Z,100920.48
2018-05-07T16:27:31.798Z,100917.19
2018-05-07T16:30:07.378Z,100909.61
2018-05-07T16:32:35.748Z,100908.61
2018-05-07T16:35:04.194Z,100911.09
2018-05-07T16:37:33.431Z,100905.23
2018-05-07T16:40:02.711Z,100899.30
2018-05-07T16:42:31.876Z,100900.86
2018-05-07T16:45:00.339Z,100896.39
2018-05-07T16:47:28.741Z,100894.29
2018-05-07T16:49:57.164Z,100894.07
2018-05-07T16:52:26.363Z,100887.94
2018-05-07T16:54:55.595Z,100886.50
2018-05-07T16:57:23.999Z,100886.44
2018-05-07T16:59:52.439Z,100888.73
2018-05-07T17:02:21.617Z,100892.72
2018-05-07T17:04:51.086Z,100886.34
2018-05-07T17:07:19.530Z,100885.30
2018-05-07T17:09:48.715Z,100886.41
2018-05-07T17:12:17.173Z,100886.47
2018-05-07T17:14:45.609Z,100881.19
2018-05-07T17:17:14.798Z,100880.49
2018-05-07T17:19:43.957Z,100880.36
2018-05-07T17:22:12.412Z,100877.64
2018-05-07T17:24:40.839Z,100866.66
2018-05-07T17:27:09.254Z,100864.84
2018-05-07T17:29:38.449Z,100872.08
2018-05-07T17:32:07.636Z,100866.94
2018-05-07T17:34:36.103Z,100870.08
2018-05-07T17:37:05.327Z,100866.28
2018-05-07T17:39:33.754Z,100863.14
2018-05-07T17:42:02.158Z,100867.05
2018-05-07T17:44:48.338Z,100865.42
2018-05-07T17:47:34.314Z,100873.06
2018-05-07T17:50:02.747Z,100869.55
2018-05-07T17:52:31.216Z,100874.23
2018-05-07T17:54:59.597Z,100866.59
2018-05-07T17:57:28.052Z,100865.30
2018-05-07T17:59:56.508Z,100864.00
2018-05-07T18:02:24.887Z,100869.95
2018-05-07T18:04:54.874Z,100866.27
2018-05-07T18:07:24.817Z,100861.91
2018-05-07T18:09:53.990Z,100861.82
2018-05-07T18:12:22.406Z,100863.19
2018-05-07T18:14:51.645Z,100867.73
2018-05-07T18:17:20.284Z,100871.98
2018-05-07T18:19:49.219Z,100861.42
2018-05-07T18:22:17.657Z,100861.89
2018-05-07T18:24:47.886Z,100869.09
2018-05-07T18:27:22.254Z,100860.39
2018-05-07T18:29:51.505Z,100865.94
2018-05-07T18:32:26.759Z,100866.31
2018-05-07T18:35:09.645Z,100867.34
2018-05-07T18:37:38.121Z,100867.42
2018-05-07T18:40:06.544Z,100871.83
2018-05-07T18:42:35.065Z,100869.12
2018-05-07T18:45:03.453Z,100869.77
2018-05-07T18:47:31.852Z,100863.55
2018-05-07T18:50:00.291Z,100868.42
2018-05-07T18:52:29.633Z,100876.42
2018-05-07T18:54:58.035Z,100876.89
2018-05-07T18:57:26.452Z,100873.54
2018-05-07T18:59:54.938Z,100880.48
2018-05-07T19:02:23.390Z,100879.80
2018-05-07T19:04:51.886Z,100883.48
2018-05-07T19:07:20.273Z,100886.67
2018-05-07T19:09:48.674Z,100887.48
2018-05-07T19:12:17.097Z,100885.60
2018-05-07T19:14:45.488Z,100888.53
2018-05-07T19:17:13.887Z,100889.52
2018-05-07T19:19:42.335Z,100885.14
2018-05-07T19:22:10.804Z,100888.11
2018-05-07T19:24:40.003Z,100889.03
2018-05-07T19:27:09.153Z,100896.48
2018-05-07T19:29:37.549Z,100901.72
2018-05-07T19:32:05.950Z,100899.59
2018-05-07T19:34:34.371Z,100907.84
2018-05-07T19:37:03.532Z,100906.69
2018-05-07T19:39:31.955Z,100906.98
2018-05-07T19:42:01.169Z,100907.21
2018-05-07T19:44:29.591Z,100901.41
2018-05-07T19:46:57.994Z,100904.72
2018-05-07T19:49:26.404Z,100906.55
2018-05-07T19:51:55.588Z,100914.09
2018-05-07T19:54:24.753Z,100907.63
2018-05-07T19:56:53.158Z,100908.72
2018-05-07T19:59:21.538Z,100907.10
2018-05-07T20:01:49.941Z,100913.38
2018-05-07T20:04:18.406Z,100912.64
2018-05-07T20:06:46.801Z,100911.93
2018-05-07T20:09:15.265Z,100911.95
2018-05-07T20:11:43.663Z,100907.72
2018-05-07T20:14:12.073Z,100913.95
2018-05-07T20:16:42.150Z,100909.50
2018-05-07T20:19:10.570Z,100913.53
2018-05-07T20:21:39.038Z,100914.80
2018-05-07T20:24:07.500Z,100916.92
2018-05-07T20:26:35.907Z,100922.58
2018-05-07T20:29:04.362Z,100921.41
2018-05-07T20:31:32.760Z,100914.80
2018-05-07T20:34:01.954Z,100924.06
2018-05-07T20:36:31.187Z,100922.22
2018-05-07T20:38:59.588Z,100919.58
2018-05-07T20:41:29.716Z,100922.52
2018-05-07T20:43:58.091Z,100916.19
2018-05-07T20:46:27.306Z,100913.91
2018-05-07T20:48:55.728Z,100919.64
2018-05-07T20:51:24.193Z,100919.43
2018-05-07T20:53:52.623Z,100924.45
2018-05-07T20:56:21.086Z,100917.70
2018-05-07T20:58:49.772Z,100921.16
2018-05-07T21:01:18.220Z,100918.59
2018-05-07T21:03:46.586Z,100926.84
2018-05-07T21:06:15.768Z,100918.05
2018-05-07T21:08:44.249Z,100914.36
2018-05-07T21:11:12.688Z,100919.88
2018-05-07T21:13:42.114Z,100917.86
2018-05-07T21:16:10.519Z,100925.01
2018-05-07T21:18:38.970Z,100923.71
2018-05-07T21:21:07.402Z,100921.58
2018-05-07T21:23:35.875Z,100922.41
2018-05-07T21:26:04.322Z,100927.00
2018-05-07T21:28:32.744Z,100926.13
2018-05-07T21:31:01.147Z,100928.86
2018-05-07T21:33:29.578Z,100924.00
2018-05-07T21:35:58.006Z,100926.20
2018-05-07T21:38:26.434Z,100927.55
2018-05-07T21:40:54.856Z,100925.05
2018-05-07T21:43:23.303Z,100930.00
2018-05-07T21:45:51.701Z,100928.70
2018-05-07T21:48:20.119Z,100932.79
2018-05-07T21:50:49.301Z,100929.84
2018-05-07T21:53:17.699Z,100927.39
2018-05-07T21:55:46.117Z,100929.61
2018-05-07T21:58:15.282Z,100926.17
2018-05-07T22:00:43.739Z,100925.34
2018-05-07T22:03:12.419Z,100924.92
2018-05-07T22:05:40.835Z,100931.46
2018-05-07T22:08:09.330Z,100928.37
2018-05-07T22:10:37.771Z,100922.66
2018-05-07T22:13:06.188Z,100921.87
2018-05-07T22:15:34.589Z,100921.08
2018-05-07T22:18:02.995Z,100925.11
2018-05-07T22:20:32.132Z,100923.45
2018-05-07T22:23:00.530Z,100930.05
2018-05-07T22:25:28.950Z,100931.91
2018-05-07T22:27:58.110Z,100932.42
2018-05-07T22:30:26.575Z,100942.52
2018-05-07T22:32:55.014Z,100937.32
2018-05-07T22:35:23.419Z,100937.79
2018-05-07T22:37:52.605Z,100939.12
2018-05-07T22:40:21.018Z,100936.91
2018-05-07T22:42:49.432Z,100936.51
2018-05-07T22:45:17.811Z,100939.14
2018-05-07T22:47:46.240Z,100939.62
2018-05-07T22:50:14.638Z,100934.80
2018-05-07T22:52:48.924Z,100932.66
2018-05-07T22:55:21.162Z,100933.52
2018-05-07T22:57:49.549Z,100937.89
2018-05-07T23:00:17.950Z,100935.69
2018-05-07T23:02:49.054Z,100932.23
2018-05-07T23:05:17.535Z,100929.63
2018-05-07T23:07:45.976Z,100929.19
2018-05-07T23:10:14.391Z,100928.74
2018-05-07T23:12:43.533Z,100922.20
2018-05-07T23:15:11.942Z,100927.00
2018-05-07T23:17:40.351Z,100916.55
2018-05-07T23:20:09.518Z,100923.08
2018-05-07T23:22:37.930Z,100921.33
2018-05-07T23:25:07.091Z,100919.57
2018-05-07T23:27:35.506Z,100915.20
2018-05-07T23:30:03.944Z,100916.08
2018-05-07T23:32:32.345Z,100923.50
2018-05-07T23:35:01.624Z,100916.08
2018-05-07T23:37:30.030Z,100922.20
2018-05-07T23:39:59.189Z,100915.23
2018-05-07T23:42:28.374Z,100913.02
2018-05-07T23:44:57.550Z,100909.09
2018-05-07T23:47:25.933Z,100914.36
2018-05-07T23:49:54.402Z,100907.38
2018-05-07T23:52:22.855Z,100905.20
2018-05-07T23:54:51.253Z,100902.59
2018-05-07T23:57:19.732Z,100904.77
2018-05-07T23:59:48.136Z,100898.23
